sensor_id;sensor_type;location;lat;lon;timestamp;P1;durP1;ratioP1;P2;durP2;ratioP2
37771;SDS011;23610;59.380;24.642;2023-05-20T00:00:48;7.07;;;2.80;;
37771;SDS011;23610;59.380;24.642;2023-05-20T00:05:50;10.05;;;3.63;;
37771;SDS011;23610;59.380;24.642;2023-05-20T00:10:54;9.35;;;3.40;;
37771;SDS011;23610;59.380;24.642;2023-05-20T00:15:56;6.10;;;3.25;;
37771;SDS011;23610;59.380;24.642;2023-05-20T00:20:59;7.22;;;2.72;;
37771;SDS011;23610;59.380;24.642;2023-05-20T00:26:02;3.90;;;2.08;;
37771;SDS011;23610;59.380;24.642;2023-05-20T00:31:05;6.68;;;3.05;;
37771;SDS011;23610;59.380;24.642;2023-05-20T00:36:07;5.68;;;3.30;;
37771;SDS011;23610;59.380;24.642;2023-05-20T00:41:10;8.57;;;3.67;;
37771;SDS011;23610;59.380;24.642;2023-05-20T00:46:13;6.43;;;3.38;;
37771;SDS011;23610;59.380;24.642;2023-05-20T00:51:16;16.05;;;5.47;;
37771;SDS011;23610;59.380;24.642;2023-05-20T00:56:19;20.90;;;7.15;;
37771;SDS011;23610;59.380;24.642;2023-05-20T01:01:27;15.95;;;6.28;;
37771;SDS011;23610;59.380;24.642;2023-05-20T01:06:30;17.10;;;7.75;;
37771;SDS011;23610;59.380;24.642;2023-05-20T01:11:35;12.38;;;6.13;;
37771;SDS011;23610;59.380;24.642;2023-05-20T01:17:01;11.45;;;6.60;;
37771;SDS011;23610;59.380;24.642;2023-05-20T01:22:10;12.18;;;6.88;;
37771;SDS011;23610;59.380;24.642;2023-05-20T01:27:16;14.25;;;5.38;;
37771;SDS011;23610;59.380;24.642;2023-05-20T01:32:22;11.35;;;5.50;;
37771;SDS011;23610;59.380;24.642;2023-05-20T01:37:33;10.27;;;5.00;;
37771;SDS011;23610;59.380;24.642;2023-05-20T01:42:42;10.65;;;5.90;;
37771;SDS011;23610;59.380;24.642;2023-05-20T01:47:47;8.63;;;5.05;;
37771;SDS011;23610;59.380;24.642;2023-05-20T01:52:50;10.32;;;4.65;;
37771;SDS011;23610;59.380;24.642;2023-05-20T01:57:53;12.25;;;5.43;;
37771;SDS011;23610;59.380;24.642;2023-05-20T02:02:58;11.13;;;4.18;;
37771;SDS011;23610;59.380;24.642;2023-05-20T02:08:01;9.15;;;4.65;;
37771;SDS011;23610;59.380;24.642;2023-05-20T02:13:04;9.80;;;4.38;;
37771;SDS011;23610;59.380;24.642;2023-05-20T02:18:07;7.28;;;4.38;;
37771;SDS011;23610;59.380;24.642;2023-05-20T02:23:10;11.25;;;4.13;;
37771;SDS011;23610;59.380;24.642;2023-05-20T02:28:13;8.25;;;3.80;;
37771;SDS011;23610;59.380;24.642;2023-05-20T02:33:17;8.10;;;3.58;;
37771;SDS011;23610;59.380;24.642;2023-05-20T02:38:20;7.65;;;3.28;;
37771;SDS011;23610;59.380;24.642;2023-05-20T02:43:23;8.55;;;3.30;;
37771;SDS011;23610;59.380;24.642;2023-05-20T02:48:26;9.00;;;4.30;;
37771;SDS011;23610;59.380;24.642;2023-05-20T02:53:29;15.70;;;5.20;;
37771;SDS011;23610;59.380;24.642;2023-05-20T02:58:32;14.77;;;4.45;;
37771;SDS011;23610;59.380;24.642;2023-05-20T03:03:36;17.25;;;5.32;;
37771;SDS011;23610;59.380;24.642;2023-05-20T03:08:39;43.70;;;15.50;;
37771;SDS011;23610;59.380;24.642;2023-05-20T03:13:49;25.35;;;8.07;;
37771;SDS011;23610;59.380;24.642;2023-05-20T03:18:52;33.40;;;11.32;;
37771;SDS011;23610;59.380;24.642;2023-05-20T03:23:57;23.98;;;7.25;;
37771;SDS011;23610;59.380;24.642;2023-05-20T03:29:00;16.63;;;6.28;;
37771;SDS011;23610;59.380;24.642;2023-05-20T03:34:03;8.45;;;3.70;;
37771;SDS011;23610;59.380;24.642;2023-05-20T03:39:06;9.15;;;3.35;;
37771;SDS011;23610;59.380;24.642;2023-05-20T03:44:09;10.80;;;3.88;;
37771;SDS011;23610;59.380;24.642;2023-05-20T03:49:13;12.50;;;4.00;;
37771;SDS011;23610;59.380;24.642;2023-05-20T03:54:16;6.88;;;3.50;;
37771;SDS011;23610;59.380;24.642;2023-05-20T03:59:24;6.40;;;3.25;;
37771;SDS011;23610;59.380;24.642;2023-05-20T04:04:29;9.03;;;4.17;;
37771;SDS011;23610;59.380;24.642;2023-05-20T04:09:32;8.38;;;3.05;;
37771;SDS011;23610;59.380;24.642;2023-05-20T04:14:37;11.55;;;5.57;;
37771;SDS011;23610;59.380;24.642;2023-05-20T04:19:43;8.98;;;3.47;;
37771;SDS011;23610;59.380;24.642;2023-05-20T04:24:46;6.03;;;3.28;;
37771;SDS011;23610;59.380;24.642;2023-05-20T04:29:49;7.28;;;3.55;;
37771;SDS011;23610;59.380;24.642;2023-05-20T04:34:54;9.52;;;4.72;;
37771;SDS011;23610;59.380;24.642;2023-05-20T04:39:58;6.83;;;2.90;;
37771;SDS011;23610;59.380;24.642;2023-05-20T04:45:04;6.70;;;2.83;;
37771;SDS011;23610;59.380;24.642;2023-05-20T04:50:10;4.00;;;2.38;;
37771;SDS011;23610;59.380;24.642;2023-05-20T04:55:16;7.07;;;2.78;;
37771;SDS011;23610;59.380;24.642;2023-05-20T05:00:20;5.63;;;2.50;;
37771;SDS011;23610;59.380;24.642;2023-05-20T05:05:24;3.25;;;1.83;;
37771;SDS011;23610;59.380;24.642;2023-05-20T05:10:27;4.35;;;1.80;;
37771;SDS011;23610;59.380;24.642;2023-05-20T05:15:30;0.90;;;0.85;;
37771;SDS011;23610;59.380;24.642;2023-05-20T05:20:36;1.67;;;1.30;;
37771;SDS011;23610;59.380;24.642;2023-05-20T05:25:39;2.33;;;1.08;;
37771;SDS011;23610;59.380;24.642;2023-05-20T05:30:49;1.48;;;1.15;;
37771;SDS011;23610;59.380;24.642;2023-05-20T05:35:52;1.48;;;0.60;;
37771;SDS011;23610;59.380;24.642;2023-05-20T05:40:55;1.70;;;1.10;;
37771;SDS011;23610;59.380;24.642;2023-05-20T05:45:57;4.03;;;1.15;;
37771;SDS011;23610;59.380;24.642;2023-05-20T05:51:00;4.72;;;0.88;;
37771;SDS011;23610;59.380;24.642;2023-05-20T05:56:03;1.98;;;0.80;;
37771;SDS011;23610;59.380;24.642;2023-05-20T06:01:07;1.45;;;0.88;;
37771;SDS011;23610;59.380;24.642;2023-05-20T06:06:09;1.48;;;0.80;;
37771;SDS011;23610;59.380;24.642;2023-05-20T06:11:12;6.47;;;0.70;;
37771;SDS011;23610;59.380;24.642;2023-05-20T06:16:15;1.35;;;0.68;;
37771;SDS011;23610;59.380;24.642;2023-05-20T06:21:18;1.33;;;1.15;;
37771;SDS011;23610;59.380;24.642;2023-05-20T06:26:21;2.10;;;1.08;;
37771;SDS011;23610;59.380;24.642;2023-05-20T06:31:26;4.95;;;0.90;;
37771;SDS011;23610;59.380;24.642;2023-05-20T06:36:31;0.90;;;0.80;;
37771;SDS011;23610;59.380;24.642;2023-05-20T06:41:34;1.85;;;1.10;;
37771;SDS011;23610;59.380;24.642;2023-05-20T06:46:42;2.15;;;0.85;;
37771;SDS011;23610;59.380;24.642;2023-05-20T06:51:48;1.30;;;0.70;;
37771;SDS011;23610;59.380;24.642;2023-05-20T06:56:55;1.05;;;0.73;;
37771;SDS011;23610;59.380;24.642;2023-05-20T07:01:59;1.50;;;1.15;;
37771;SDS011;23610;59.380;24.642;2023-05-20T07:07:01;1.73;;;1.10;;
37771;SDS011;23610;59.380;24.642;2023-05-20T07:12:05;2.10;;;1.00;;
37771;SDS011;23610;59.380;24.642;2023-05-20T07:17:09;1.05;;;0.70;;
37771;SDS011;23610;59.380;24.642;2023-05-20T07:22:13;0.75;;;0.70;;
37771;SDS011;23610;59.380;24.642;2023-05-20T07:27:36;5.97;;;0.77;;
37771;SDS011;23610;59.380;24.642;2023-05-20T07:32:39;1.60;;;1.02;;
37771;SDS011;23610;59.380;24.642;2023-05-20T07:37:42;1.75;;;0.90;;
37771;SDS011;23610;59.380;24.642;2023-05-20T07:42:45;2.78;;;1.27;;
37771;SDS011;23610;59.380;24.642;2023-05-20T07:47:48;8.95;;;1.20;;
37771;SDS011;23610;59.380;24.642;2023-05-20T07:52:52;3.45;;;1.10;;
37771;SDS011;23610;59.380;24.642;2023-05-20T07:58:00;1.58;;;0.95;;
37771;SDS011;23610;59.380;24.642;2023-05-20T08:03:04;2.92;;;1.20;;
37771;SDS011;23610;59.380;24.642;2023-05-20T08:08:35;0.75;;;0.70;;
37771;SDS011;23610;59.380;24.642;2023-05-20T08:13:43;2.08;;;1.30;;
37771;SDS011;23610;59.380;24.642;2023-05-20T08:18:45;4.25;;;0.90;;
37771;SDS011;23610;59.380;24.642;2023-05-20T08:23:48;6.03;;;1.27;;
37771;SDS011;23610;59.380;24.642;2023-05-20T08:28:51;6.82;;;1.10;;
37771;SDS011;23610;59.380;24.642;2023-05-20T08:33:54;5.03;;;1.30;;
37771;SDS011;23610;59.380;24.642;2023-05-20T08:38:57;2.78;;;0.90;;
37771;SDS011;23610;59.380;24.642;2023-05-20T08:43:59;5.30;;;1.27;;
37771;SDS011;23610;59.380;24.642;2023-05-20T08:49:03;4.33;;;1.00;;
37771;SDS011;23610;59.380;24.642;2023-05-20T08:54:06;4.40;;;1.55;;
37771;SDS011;23610;59.380;24.642;2023-05-20T08:59:12;2.47;;;1.15;;
37771;SDS011;23610;59.380;24.642;2023-05-20T09:04:15;3.40;;;1.30;;
37771;SDS011;23610;59.380;24.642;2023-05-20T09:09:18;13.38;;;1.58;;
37771;SDS011;23610;59.380;24.642;2023-05-20T09:14:20;2.45;;;1.10;;
37771;SDS011;23610;59.380;24.642;2023-05-20T09:19:24;0.90;;;0.80;;
37771;SDS011;23610;59.380;24.642;2023-05-20T09:24:26;1.77;;;1.00;;
37771;SDS011;23610;59.380;24.642;2023-05-20T09:29:31;1.58;;;1.05;;
37771;SDS011;23610;59.380;24.642;2023-05-20T09:34:34;1.10;;;0.88;;
37771;SDS011;23610;59.380;24.642;2023-05-20T09:45:21;4.53;;;0.90;;
37771;SDS011;23610;59.380;24.642;2023-05-20T09:50:25;2.33;;;0.70;;
37771;SDS011;23610;59.380;24.642;2023-05-20T09:55:29;2.07;;;1.00;;
37771;SDS011;23610;59.380;24.642;2023-05-20T10:00:32;2.65;;;0.55;;
37771;SDS011;23610;59.380;24.642;2023-05-20T10:05:36;1.02;;;0.98;;
37771;SDS011;23610;59.380;24.642;2023-05-20T10:10:58;7.50;;;1.00;;
37771;SDS011;23610;59.380;24.642;2023-05-20T10:21:40;2.60;;;0.60;;
37771;SDS011;23610;59.380;24.642;2023-05-20T10:26:42;2.35;;;0.70;;
37771;SDS011;23610;59.380;24.642;2023-05-20T10:31:55;3.13;;;0.70;;
37771;SDS011;23610;59.380;24.642;2023-05-20T10:36:59;1.80;;;0.70;;
37771;SDS011;23610;59.380;24.642;2023-05-20T10:42:08;2.05;;;0.50;;
37771;SDS011;23610;59.380;24.642;2023-05-20T10:47:12;0.70;;;0.70;;
37771;SDS011;23610;59.380;24.642;2023-05-20T10:52:18;3.53;;;0.73;;
37771;SDS011;23610;59.380;24.642;2023-05-20T10:57:27;1.38;;;0.80;;
37771;SDS011;23610;59.380;24.642;2023-05-20T11:02:30;2.63;;;1.70;;
37771;SDS011;23610;59.380;24.642;2023-05-20T11:07:35;2.10;;;1.43;;
37771;SDS011;23610;59.380;24.642;2023-05-20T11:12:38;3.05;;;1.05;;
37771;SDS011;23610;59.380;24.642;2023-05-20T11:17:57;2.35;;;0.93;;
37771;SDS011;23610;59.380;24.642;2023-05-20T11:23:04;1.75;;;0.80;;
37771;SDS011;23610;59.380;24.642;2023-05-20T11:28:08;1.75;;;0.65;;
37771;SDS011;23610;59.380;24.642;2023-05-20T11:33:15;3.60;;;2.80;;
37771;SDS011;23610;59.380;24.642;2023-05-20T11:38:19;1.27;;;0.60;;
37771;SDS011;23610;59.380;24.642;2023-05-20T11:43:22;0.85;;;0.60;;
37771;SDS011;23610;59.380;24.642;2023-05-20T11:48:25;1.45;;;0.65;;
37771;SDS011;23610;59.380;24.642;2023-05-20T11:53:28;0.65;;;0.60;;
37771;SDS011;23610;59.380;24.642;2023-05-20T11:58:30;0.77;;;0.68;;
37771;SDS011;23610;59.380;24.642;2023-05-20T12:03:33;0.68;;;0.60;;
37771;SDS011;23610;59.380;24.642;2023-05-20T12:08:36;1.27;;;1.10;;
37771;SDS011;23610;59.380;24.642;2023-05-20T12:13:39;3.38;;;0.95;;
37771;SDS011;23610;59.380;24.642;2023-05-20T12:18:41;1.52;;;1.17;;
37771;SDS011;23610;59.380;24.642;2023-05-20T12:23:44;4.60;;;1.10;;
37771;SDS011;23610;59.380;24.642;2023-05-20T12:28:47;1.08;;;0.75;;
37771;SDS011;23610;59.380;24.642;2023-05-20T12:33:49;3.13;;;0.80;;
37771;SDS011;23610;59.380;24.642;2023-05-20T12:38:52;1.13;;;0.88;;
37771;SDS011;23610;59.380;24.642;2023-05-20T12:43:55;2.83;;;0.88;;
37771;SDS011;23610;59.380;24.642;2023-05-20T12:48:57;3.80;;;0.80;;
37771;SDS011;23610;59.380;24.642;2023-05-20T12:54:00;1.08;;;0.60;;
37771;SDS011;23610;59.380;24.642;2023-05-20T12:59:03;2.60;;;0.82;;
37771;SDS011;23610;59.380;24.642;2023-05-20T13:04:06;2.08;;;0.63;;
37771;SDS011;23610;59.380;24.642;2023-05-20T13:09:08;1.38;;;1.08;;
37771;SDS011;23610;59.380;24.642;2023-05-20T13:14:11;2.60;;;0.70;;
37771;SDS011;23610;59.380;24.642;2023-05-20T13:19:16;1.10;;;0.80;;
37771;SDS011;23610;59.380;24.642;2023-05-20T13:24:19;1.27;;;0.73;;
37771;SDS011;23610;59.380;24.642;2023-05-20T13:29:22;1.27;;;0.85;;
37771;SDS011;23610;59.380;24.642;2023-05-20T13:34:24;0.75;;;0.75;;
37771;SDS011;23610;59.380;24.642;2023-05-20T13:39:27;3.67;;;1.05;;
37771;SDS011;23610;59.380;24.642;2023-05-20T13:44:30;1.20;;;0.80;;
37771;SDS011;23610;59.380;24.642;2023-05-20T13:49:33;2.70;;;0.85;;
37771;SDS011;23610;59.380;24.642;2023-05-20T13:54:35;2.58;;;0.80;;
37771;SDS011;23610;59.380;24.642;2023-05-20T13:59:38;3.00;;;1.00;;
37771;SDS011;23610;59.380;24.642;2023-05-20T14:04:40;0.50;;;0.50;;
37771;SDS011;23610;59.380;24.642;2023-05-20T14:09:45;1.35;;;0.90;;
37771;SDS011;23610;59.380;24.642;2023-05-20T14:14:48;0.80;;;0.65;;
37771;SDS011;23610;59.380;24.642;2023-05-20T14:19:51;1.20;;;0.68;;
37771;SDS011;23610;59.380;24.642;2023-05-20T14:24:53;3.53;;;1.40;;
37771;SDS011;23610;59.380;24.642;2023-05-20T14:29:59;1.58;;;0.85;;
37771;SDS011;23610;59.380;24.642;2023-05-20T14:35:03;6.45;;;1.08;;
37771;SDS011;23610;59.380;24.642;2023-05-20T14:40:08;0.50;;;0.50;;
37771;SDS011;23610;59.380;24.642;2023-05-20T14:45:12;3.45;;;1.00;;
37771;SDS011;23610;59.380;24.642;2023-05-20T14:50:17;0.70;;;0.70;;
37771;SDS011;23610;59.380;24.642;2023-05-20T14:55:22;1.48;;;0.80;;
37771;SDS011;23610;59.380;24.642;2023-05-20T15:00:28;1.13;;;0.70;;
37771;SDS011;23610;59.380;24.642;2023-05-20T15:05:36;0.75;;;0.75;;
37771;SDS011;23610;59.380;24.642;2023-05-20T15:10:38;0.80;;;0.60;;
37771;SDS011;23610;59.380;24.642;2023-05-20T15:15:41;1.38;;;1.00;;
37771;SDS011;23610;59.380;24.642;2023-05-20T15:20:44;0.85;;;0.70;;
37771;SDS011;23610;59.380;24.642;2023-05-20T15:25:47;4.93;;;0.98;;
37771;SDS011;23610;59.380;24.642;2023-05-20T15:30:54;1.13;;;1.00;;
37771;SDS011;23610;59.380;24.642;2023-05-20T15:35:58;11.25;;;2.05;;
37771;SDS011;23610;59.380;24.642;2023-05-20T15:41:02;2.25;;;0.70;;
37771;SDS011;23610;59.380;24.642;2023-05-20T15:46:05;1.67;;;1.00;;
37771;SDS011;23610;59.380;24.642;2023-05-20T15:51:09;6.78;;;1.10;;
37771;SDS011;23610;59.380;24.642;2023-05-20T15:56:13;3.17;;;1.15;;
37771;SDS011;23610;59.380;24.642;2023-05-20T16:01:17;1.80;;;1.17;;
37771;SDS011;23610;59.380;24.642;2023-05-20T16:06:22;0.88;;;0.75;;
37771;SDS011;23610;59.380;24.642;2023-05-20T16:11:27;1.50;;;1.10;;
37771;SDS011;23610;59.380;24.642;2023-05-20T16:16:33;1.15;;;0.95;;
37771;SDS011;23610;59.380;24.642;2023-05-20T16:21:36;1.33;;;0.90;;
37771;SDS011;23610;59.380;24.642;2023-05-20T16:26:39;1.73;;;1.08;;
37771;SDS011;23610;59.380;24.642;2023-05-20T16:31:42;1.27;;;1.17;;
37771;SDS011;23610;59.380;24.642;2023-05-20T16:36:50;1.80;;;1.42;;
37771;SDS011;23610;59.380;24.642;2023-05-20T16:46:59;1.15;;;0.80;;
37771;SDS011;23610;59.380;24.642;2023-05-20T16:52:02;1.45;;;1.00;;
37771;SDS011;23610;59.380;24.642;2023-05-20T16:57:06;3.03;;;1.13;;
37771;SDS011;23610;59.380;24.642;2023-05-20T17:02:09;1.20;;;0.70;;
37771;SDS011;23610;59.380;24.642;2023-05-20T17:07:12;1.98;;;1.02;;
37771;SDS011;23610;59.380;24.642;2023-05-20T17:12:17;0.87;;;0.70;;
37771;SDS011;23610;59.380;24.642;2023-05-20T17:17:20;2.15;;;0.98;;
37771;SDS011;23610;59.380;24.642;2023-05-20T17:22:26;4.07;;;1.90;;
37771;SDS011;23610;59.380;24.642;2023-05-20T17:27:30;2.28;;;1.10;;
37771;SDS011;23610;59.380;24.642;2023-05-20T17:32:33;1.65;;;1.33;;
37771;SDS011;23610;59.380;24.642;2023-05-20T17:37:36;3.65;;;1.50;;
37771;SDS011;23610;59.380;24.642;2023-05-20T17:42:39;2.22;;;1.67;;
37771;SDS011;23610;59.380;24.642;2023-05-20T17:47:42;2.35;;;1.48;;
37771;SDS011;23610;59.380;24.642;2023-05-20T17:52:45;2.60;;;1.27;;
37771;SDS011;23610;59.380;24.642;2023-05-20T17:57:51;7.57;;;1.55;;
37771;SDS011;23610;59.380;24.642;2023-05-20T18:02:58;4.32;;;1.85;;
37771;SDS011;23610;59.380;24.642;2023-05-20T18:08:02;5.18;;;3.15;;
37771;SDS011;23610;59.380;24.642;2023-05-20T18:13:05;6.35;;;2.90;;
37771;SDS011;23610;59.380;24.642;2023-05-20T18:18:08;2.78;;;2.25;;
37771;SDS011;23610;59.380;24.642;2023-05-20T18:23:12;1.60;;;1.50;;
37771;SDS011;23610;59.380;24.642;2023-05-20T18:28:16;2.30;;;1.67;;
37771;SDS011;23610;59.380;24.642;2023-05-20T18:33:18;5.28;;;1.52;;
37771;SDS011;23610;59.380;24.642;2023-05-20T18:38:25;2.72;;;1.63;;
37771;SDS011;23610;59.380;24.642;2023-05-20T18:43:29;4.68;;;2.30;;
37771;SDS011;23610;59.380;24.642;2023-05-20T18:48:32;1.27;;;1.10;;
37771;SDS011;23610;59.380;24.642;2023-05-20T18:53:35;4.68;;;1.15;;
37771;SDS011;23610;59.380;24.642;2023-05-20T18:58:37;2.83;;;1.10;;
37771;SDS011;23610;59.380;24.642;2023-05-20T19:03:40;5.32;;;1.25;;
37771;SDS011;23610;59.380;24.642;2023-05-20T19:08:45;2.72;;;1.00;;
37771;SDS011;23610;59.380;24.642;2023-05-20T19:18:54;1.13;;;0.77;;
37771;SDS011;23610;59.380;24.642;2023-05-20T19:23:57;4.45;;;1.50;;
37771;SDS011;23610;59.380;24.642;2023-05-20T19:29:01;1.58;;;1.02;;
37771;SDS011;23610;59.380;24.642;2023-05-20T19:34:04;1.70;;;1.27;;
37771;SDS011;23610;59.380;24.642;2023-05-20T19:39:07;3.13;;;1.30;;
37771;SDS011;23610;59.380;24.642;2023-05-20T19:44:10;2.75;;;1.23;;
37771;SDS011;23610;59.380;24.642;2023-05-20T19:49:13;1.30;;;1.08;;
37771;SDS011;23610;59.380;24.642;2023-05-20T19:54:16;2.42;;;1.52;;
37771;SDS011;23610;59.380;24.642;2023-05-20T19:59:19;1.38;;;1.23;;
37771;SDS011;23610;59.380;24.642;2023-05-20T20:04:22;2.63;;;1.80;;
37771;SDS011;23610;59.380;24.642;2023-05-20T20:09:25;3.72;;;1.45;;
37771;SDS011;23610;59.380;24.642;2023-05-20T20:14:28;4.30;;;1.42;;
37771;SDS011;23610;59.380;24.642;2023-05-20T20:19:36;4.88;;;1.98;;
37771;SDS011;23610;59.380;24.642;2023-05-20T20:24:39;3.35;;;1.95;;
37771;SDS011;23610;59.380;24.642;2023-05-20T20:29:42;6.20;;;3.10;;
37771;SDS011;23610;59.380;24.642;2023-05-20T20:34:45;17.85;;;10.27;;
37771;SDS011;23610;59.380;24.642;2023-05-20T20:39:51;90.43;;;49.50;;
37771;SDS011;23610;59.380;24.642;2023-05-20T20:44:55;83.35;;;46.03;;
37771;SDS011;23610;59.380;24.642;2023-05-20T20:49:58;87.72;;;52.67;;
37771;SDS011;23610;59.380;24.642;2023-05-20T20:55:01;56.50;;;32.35;;
37771;SDS011;23610;59.380;24.642;2023-05-20T21:00:05;53.55;;;29.10;;
37771;SDS011;23610;59.380;24.642;2023-05-20T21:05:16;40.35;;;22.38;;
37771;SDS011;23610;59.380;24.642;2023-05-20T21:10:22;35.45;;;17.92;;
37771;SDS011;23610;59.380;24.642;2023-05-20T21:15:29;20.08;;;12.57;;
37771;SDS011;23610;59.380;24.642;2023-05-20T21:20:32;19.40;;;11.32;;
37771;SDS011;23610;59.380;24.642;2023-05-20T21:25:34;19.00;;;11.43;;
37771;SDS011;23610;59.380;24.642;2023-05-20T21:30:37;15.68;;;10.48;;
37771;SDS011;23610;59.380;24.642;2023-05-20T21:35:40;18.10;;;10.52;;
37771;SDS011;23610;59.380;24.642;2023-05-20T21:40:42;16.85;;;10.93;;
37771;SDS011;23610;59.380;24.642;2023-05-20T21:45:45;20.40;;;10.25;;
37771;SDS011;23610;59.380;24.642;2023-05-20T21:50:48;21.08;;;12.13;;
37771;SDS011;23610;59.380;24.642;2023-05-20T21:55:50;21.50;;;13.25;;
37771;SDS011;23610;59.380;24.642;2023-05-20T22:00:53;22.52;;;12.88;;
37771;SDS011;23610;59.380;24.642;2023-05-20T22:05:55;15.85;;;11.23;;
37771;SDS011;23610;59.380;24.642;2023-05-20T22:10:59;19.67;;;11.50;;
37771;SDS011;23610;59.380;24.642;2023-05-20T22:16:06;20.67;;;11.68;;
37771;SDS011;23610;59.380;24.642;2023-05-20T22:21:09;18.13;;;10.18;;
37771;SDS011;23610;59.380;24.642;2023-05-20T22:26:12;14.27;;;8.63;;
37771;SDS011;23610;59.380;24.642;2023-05-20T22:31:14;13.45;;;8.63;;
37771;SDS011;23610;59.380;24.642;2023-05-20T22:36:17;10.43;;;7.30;;
37771;SDS011;23610;59.380;24.642;2023-05-20T22:41:20;9.80;;;6.55;;
37771;SDS011;23610;59.380;24.642;2023-05-20T22:46:23;17.02;;;9.10;;
37771;SDS011;23610;59.380;24.642;2023-05-20T22:51:26;15.95;;;9.32;;
37771;SDS011;23610;59.380;24.642;2023-05-20T22:56:28;11.40;;;8.45;;
37771;SDS011;23610;59.380;24.642;2023-05-20T23:01:32;13.32;;;8.30;;
37771;SDS011;23610;59.380;24.642;2023-05-20T23:06:35;15.23;;;10.05;;
37771;SDS011;23610;59.380;24.642;2023-05-20T23:11:39;13.45;;;8.45;;
37771;SDS011;23610;59.380;24.642;2023-05-20T23:16:41;10.20;;;7.47;;
37771;SDS011;23610;59.380;24.642;2023-05-20T23:21:44;12.27;;;7.25;;
37771;SDS011;23610;59.380;24.642;2023-05-20T23:26:47;11.85;;;7.80;;
37771;SDS011;23610;59.380;24.642;2023-05-20T23:31:49;14.52;;;7.90;;
37771;SDS011;23610;59.380;24.642;2023-05-20T23:36:52;13.05;;;7.30;;
37771;SDS011;23610;59.380;24.642;2023-05-20T23:41:55;12.15;;;7.05;;
37771;SDS011;23610;59.380;24.642;2023-05-20T23:46:57;10.23;;;6.13;;
37771;SDS011;23610;59.380;24.642;2023-05-20T23:52:01;8.85;;;5.45;;
37771;SDS011;23610;59.380;24.642;2023-05-20T23:57:04;9.18;;;5.20;;
